Time;durP1;ratioP1;P1;durP2;ratioP2;P2;SDS_P1;SDS_P2;PMS_P1;PMS_P2;Temp;Humidity;BMP_temperature;BMP_pressure;BME280_temperature;BME280_humidity;BME280_pressure;Samples;Min_cycle;Max_cycle;Signal;HPM_P1;HPM_P2
2022/06/30 00:02:12;;;;;;;8.30;2.67;;;;;;;18.77;40.63;99731.25;5118400;27;20039;-69
2022/06/30 00:04:39;;;;;;;16.08;3.28;;;;;;;18.74;40.96;99729.19;5136274;27;20057;-68
2022/06/30 00:07:07;;;;;;;12.88;3.05;;;;;;;18.73;41.25;99722.75;5136257;27;20043;-69
2022/06/30 00:09:34;;;;;;;20.98;3.03;;;;;;;18.72;41.20;99723.13;5136387;27;20047;-70
2022/06/30 00:12:01;;;;;;;9.75;3.38;;;;;;;18.69;41.32;99726.72;5117762;27;20423;-70
2022/06/30 00:14:27;;;;;;;10.57;3.15;;;;;;;18.68;41.49;99725.09;5135527;27;20051;-69
2022/06/30 00:16:55;;;;;;;12.48;2.95;;;;;;;18.68;41.53;99720.25;5107349;27;20476;-70
2022/06/30 00:19:22;;;;;;;7.88;2.90;;;;;;;18.64;41.72;99725.03;5095264;28;20059;-69
2022/06/30 00:21:49;;;;;;;8.48;3.30;;;;;;;18.68;41.68;99725.88;5100047;28;20090;-70
2022/06/30 00:24:16;;;;;;;12.80;3.20;;;;;;;18.61;41.44;99706.06;5115343;28;20051;-69
2022/06/30 00:26:46;;;;;;;7.60;2.75;;;;;;;18.61;41.95;99711.72;5115499;28;20052;-70
2022/06/30 00:29:13;;;;;;;8.32;2.83;;;;;;;18.61;42.03;99720.16;5115460;28;20048;-69
2022/06/30 00:31:40;;;;;;;14.48;2.97;;;;;;;18.62;42.10;99716.13;5115559;28;20134;-70
2022/06/30 00:34:08;;;;;;;12.07;3.08;;;;;;;18.59;42.17;99719.72;5115440;28;20043;-71
2022/06/30 00:36:35;;;;;;;18.55;4.70;;;;;;;18.55;42.46;99720.88;5097025;28;20089;-71
2022/06/30 00:39:03;;;;;;;17.95;3.50;;;;;;;18.52;42.34;99722.44;5076757;28;20072;-72
2022/06/30 00:41:30;;;;;;;17.63;3.35;;;;;;;18.49;42.63;99717.56;5094616;28;20489;-72
2022/06/30 00:43:57;;;;;;;13.77;3.53;;;;;;;18.44;42.75;99723.53;5094547;28;20131;-72
2022/06/30 00:46:24;;;;;;;10.20;3.13;;;;;;;18.40;43.13;99714.22;5094889;28;20052;-72
2022/06/30 00:48:51;;;;;;;9.43;3.03;;;;;;;18.37;43.09;99719.78;5094760;28;20102;-72
2022/06/30 00:51:23;;;;;;;19.98;3.60;;;;;;;18.36;42.96;99713.34;5094834;28;20052;-71
2022/06/30 00:53:52;;;;;;;17.42;3.08;;;;;;;18.35;43.35;99710.91;5094424;28;20101;-72
2022/06/30 00:56:21;;;;;;;10.07;3.60;;;;;;;18.33;43.39;99714.09;5094563;28;20044;-72
2022/06/30 00:58:50;;;;;;;14.90;3.65;;;;;;;18.31;43.34;99710.84;5093036;28;20079;-71
2022/06/30 01:01:19;;;;;;;10.43;2.85;;;;;;;18.30;43.69;99712.06;5094514;28;20071;-72
2022/06/30 01:03:46;;;;;;;10.13;4.13;;;;;;;18.30;43.55;99714.03;5094789;28;20052;-71
2022/06/30 01:06:13;;;;;;;13.98;3.30;;;;;;;18.28;43.80;99708.78;5093003;28;20069;-72
2022/06/30 01:08:41;;;;;;;20.00;3.13;;;;;;;18.25;44.08;99706.72;5092902;28;20465;-69
2022/06/30 01:13:53;;;;;;;14.13;3.72;;;;;;;18.22;44.13;99701.88;5094245;28;20422;-69
2022/06/30 01:16:22;;;;;;;11.15;3.40;;;;;;;18.21;44.09;99701.03;5092796;28;20050;-70
2022/06/30 01:18:49;;;;;;;6.72;3.28;;;;;;;18.17;44.33;99699.34;5093915;28;20044;-69
2022/06/30 01:21:17;;;;;;;14.82;3.40;;;;;;;18.19;44.34;99702.63;5094160;28;20067;-70
2022/06/30 01:23:44;;;;;;;13.80;3.42;;;;;;;18.15;44.44;99696.91;5094184;28;20136;-71
2022/06/30 01:26:12;;;;;;;11.93;3.60;;;;;;;18.12;44.69;99692.06;5094334;28;20135;-71
2022/06/30 01:28:39;;;;;;;12.50;3.38;;;;;;;18.14;44.87;99697.31;5094121;28;20044;-71
2022/06/30 01:31:06;;;;;;;18.15;3.17;;;;;;;18.11;44.82;99683.97;5093609;28;20109;-72
2022/06/30 01:33:33;;;;;;;15.35;3.85;;;;;;;18.14;45.01;99695.31;5094210;28;20048;-71
2022/06/30 01:36:00;;;;;;;10.60;3.50;;;;;;;18.07;45.22;99683.94;5094221;28;20048;-71
2022/06/30 01:38:27;;;;;;;12.55;3.55;;;;;;;18.07;45.35;99688.75;5093719;28;20126;-73
2022/06/30 01:40:54;;;;;;;11.13;3.35;;;;;;;18.08;45.45;99696.81;5113102;28;20059;-73
2022/06/30 01:43:21;;;;;;;10.32;3.30;;;;;;;18.06;45.62;99689.97;5096133;28;20059;-73
2022/06/30 01:45:48;;;;;;;12.88;3.70;;;;;;;18.11;45.85;99698.06;5095860;28;20035;-74
2022/06/30 01:48:15;;;;;;;17.15;3.95;;;;;;;18.13;45.74;99687.25;5113992;28;20130;-72
2022/06/30 01:50:42;;;;;;;11.85;3.40;;;;;;;18.15;45.93;99690.50;5114045;28;20044;-73
2022/06/30 01:53:09;;;;;;;15.68;3.20;;;;;;;18.15;45.82;99691.28;5113963;28;20465;-74
2022/06/30 01:55:36;;;;;;;14.95;3.90;;;;;;;18.16;45.92;99692.13;5113600;28;20047;-74
2022/06/30 01:58:03;;;;;;;14.23;3.58;;;;;;;18.17;46.04;99693.72;5113768;28;20052;-74
2022/06/30 02:00:31;;;;;;;9.02;3.53;;;;;;;18.15;46.46;99690.50;5113376;28;20043;-73
2022/06/30 02:02:59;;;;;;;21.08;4.40;;;;;;;18.13;46.46;99684.44;5113680;28;20051;-74
2022/06/30 02:05:26;;;;;;;12.88;4.22;;;;;;;18.15;46.53;99674.41;5113486;28;20470;-74
2022/06/30 02:07:53;;;;;;;23.60;3.97;;;;;;;18.15;46.82;99679.25;5095702;28;20604;-73
2022/06/30 02:10:22;;;;;;;13.52;3.58;;;;;;;18.16;46.90;99672.41;5113587;28;20150;-74
2022/06/30 02:12:51;;;;;;;29.75;4.10;;;;;;;18.16;46.81;99681.69;5113341;28;20096;-74
2022/06/30 02:15:22;;;;;;;27.70;5.40;;;;;;;18.15;46.72;99667.97;5113132;28;20095;-74
2022/06/30 02:17:51;;;;;;;23.27;5.70;;;;;;;18.19;46.81;99669.66;5113155;28;20047;-74
2022/06/30 02:20:23;;;;;;;24.33;4.55;;;;;;;18.24;46.85;99672.13;5113006;28;20528;-74
2022/06/30 02:22:57;;;;;;;13.45;4.10;;;;;;;18.28;47.24;99677.81;5113526;28;20063;-68
2022/06/30 02:25:26;;;;;;;23.42;4.28;;;;;;;18.26;47.24;99660.47;5113311;28;20510;-72
2022/06/30 02:27:53;;;;;;;13.15;4.45;;;;;;;18.35;46.92;99672.25;5113228;28;20054;-71
2022/06/30 02:30:21;;;;;;;20.45;5.07;;;;;;;18.41;46.95;99669.97;5113194;28;20506;-70
2022/06/30 02:32:49;;;;;;;33.67;4.47;;;;;;;18.44;46.85;99675.66;5095504;28;20054;-72
2022/06/30 02:35:16;;;;;;;16.73;3.80;;;;;;;18.52;46.42;99671.75;5113383;28;20138;-71
2022/06/30 02:37:43;;;;;;;23.77;4.78;;;;;;;18.60;46.45;99672.63;5112506;28;20058;-71
2022/06/30 02:40:11;;;;;;;17.77;4.57;;;;;;;18.65;46.49;99669.50;5112833;28;20514;-71
2022/06/30 02:42:41;;;;;;;21.10;5.53;;;;;;;18.74;46.00;99675.66;5113503;28;20043;-72
2022/06/30 02:45:09;;;;;;;16.00;4.25;;;;;;;18.80;45.84;99668.47;5094587;28;20474;-71
2022/06/30 02:47:41;;;;;;;25.30;4.68;;;;;;;18.83;45.52;99665.69;5113414;28;20078;-72
2022/06/30 02:50:11;;;;;;;19.38;4.75;;;;;;;18.86;45.60;99664.13;5112925;28;20138;-72
2022/06/30 02:52:38;;;;;;;17.98;5.20;;;;;;;18.86;45.47;99675.41;5094707;28;20043;-72
2022/06/30 02:55:07;;;;;;;19.50;4.82;;;;;;;18.89;45.29;99672.59;5113505;28;20105;-72
2022/06/30 02:57:35;;;;;;;19.48;4.50;;;;;;;18.90;45.51;99670.59;5113394;28;20134;-72
2022/06/30 03:00:08;;;;;;;30.85;5.35;;;;;;;18.89;45.65;99669.00;5112898;28;20047;-72
2022/06/30 03:02:35;;;;;;;20.98;4.40;;;;;;;18.90;45.34;99674.25;5112670;28;20086;-74
2022/06/30 03:05:03;;;;;;;23.92;4.65;;;;;;;18.94;45.25;99674.25;5112746;28;20086;-72
2022/06/30 03:07:30;;;;;;;25.80;4.75;;;;;;;18.95;45.09;99676.69;5113301;28;20044;-72
2022/06/30 03:09:59;;;;;;;24.27;5.53;;;;;;;18.92;45.20;99671.03;5112783;28;20130;-72
2022/06/30 03:12:28;;;;;;;15.75;4.82;;;;;;;18.96;45.11;99675.53;5112961;28;20473;-71
2022/06/30 03:14:56;;;;;;;26.33;5.07;;;;;;;19.02;44.95;99679.63;5112807;28;20065;-71
2022/06/30 03:17:24;;;;;;;27.38;5.07;;;;;;;19.00;45.07;99670.72;5094712;28;20138;-71
2022/06/30 03:19:51;;;;;;;26.17;5.07;;;;;;;19.02;45.19;99678.78;5113034;28;20526;-72
2022/06/30 03:22:18;;;;;;;25.98;5.28;;;;;;;19.03;44.92;99675.59;5113152;28;20052;-72
2022/06/30 03:24:45;;;;;;;22.60;4.60;;;;;;;19.12;44.74;99681.72;5112656;28;20075;-71
2022/06/30 03:27:12;;;;;;;18.25;4.75;;;;;;;19.21;44.62;99687.88;5112749;28;20047;-71
2022/06/30 03:29:39;;;;;;;30.25;5.68;;;;;;;19.26;44.65;99675.44;5112590;28;20141;-72
2022/06/30 03:32:06;;;;;;;13.77;5.00;;;;;;;19.31;44.69;99675.94;5112749;28;20460;-72
2022/06/30 03:34:33;;;;;;;11.80;4.10;;;;;;;19.38;44.49;99678.00;5112705;28;20151;-72
2022/06/30 03:37:00;;;;;;;14.57;4.15;;;;;;;19.40;44.53;99670.78;5112469;28;20147;-72
2022/06/30 03:39:27;;;;;;;14.20;4.78;;;;;;;19.44;44.28;99674.44;5112421;28;20426;-72
2022/06/30 03:41:54;;;;;;;13.80;4.82;;;;;;;19.49;44.29;99671.28;5111115;28;20047;-72
2022/06/30 03:44:21;;;;;;;15.38;4.75;;;;;;;19.57;43.92;99666.53;5111083;28;20054;-72
2022/06/30 03:46:49;;;;;;;14.85;4.38;;;;;;;19.80;43.65;99669.91;5112367;28;20047;-72
2022/06/30 03:49:22;;;;;;;16.40;4.82;;;;;;;20.08;42.93;99669.34;5113829;28;20387;-72
2022/06/30 03:51:49;;;;;;;13.02;3.85;;;;;;;20.33;42.53;99675.97;5116349;28;20093;-71
2022/06/30 03:54:16;;;;;;;16.00;4.05;;;;;;;20.50;41.93;99676.09;5115925;28;20142;-72
2022/06/30 03:56:44;;;;;;;19.05;5.22;;;;;;;20.65;41.62;99674.97;5116171;28;20043;-71
2022/06/30 03:59:10;;;;;;;10.30;3.78;;;;;;;20.84;41.37;99671.00;5116184;28;20571;-72
2022/06/30 04:01:38;;;;;;;17.30;3.55;;;;;;;21.01;40.92;99678.75;5116094;28;20050;-71
2022/06/30 04:04:04;;;;;;;6.15;3.17;;;;;;;21.10;40.31;99673.53;5115951;28;20083;-71
2022/06/30 04:06:32;;;;;;;11.00;3.83;;;;;;;21.19;39.68;99685.28;5105836;28;20124;-71
2022/06/30 04:08:59;;;;;;;6.20;2.75;;;;;;;21.25;39.14;99675.19;5097222;28;20056;-72
2022/06/30 04:11:26;;;;;;;8.65;2.47;;;;;;;21.37;38.73;99674.81;5115854;28;20051;-72
2022/06/30 04:13:55;;;;;;;13.07;2.42;;;;;;;21.48;38.18;99675.66;5115996;28;20083;-73
2022/06/30 04:16:22;;;;;;;6.93;2.95;;;;;;;21.54;37.64;99674.03;5115610;28;20422;-72
2022/06/30 04:18:49;;;;;;;14.23;2.40;;;;;;;21.58;37.51;99674.84;5115768;28;20494;-71
2022/06/30 04:21:16;;;;;;;7.72;2.30;;;;;;;21.70;36.99;99678.09;5115612;28;20047;-71
2022/06/30 04:23:44;;;;;;;14.02;3.55;;;;;;;21.79;37.04;99669.22;5115384;28;20421;-72
2022/06/30 04:26:11;;;;;;;10.98;2.58;;;;;;;21.99;36.60;99667.59;5116343;28;20059;-72
2022/06/30 04:28:38;;;;;;;11.60;2.35;;;;;;;22.06;36.45;99669.63;5115504;28;20108;-72
2022/06/30 04:33:51;;;;;;;6.78;2.25;;;;;;;22.40;35.68;99657.44;5115129;28;20052;-72
2022/06/30 04:36:18;;;;;;;16.13;2.47;;;;;;;22.52;35.36;99665.53;5115580;28;20100;-72
2022/06/30 04:38:45;;;;;;;8.50;1.88;;;;;;;22.68;34.61;99665.88;5115295;28;20048;-72
2022/06/30 04:41:24;;;;;;;5.18;1.55;;;;;;;22.77;34.23;99657.72;5114903;28;20414;-72
2022/06/30 04:43:52;;;;;;;;;;;;;;;22.73;34.46;99665.44;5115345;28;20048;-69
2022/06/30 04:46:19;;;;;;;4.40;2.08;;;;;;;22.89;34.10;99662.94;5115447;28;19930;-69
2022/06/30 04:48:47;;;;;;;8.13;2.70;;;;;;;23.04;33.79;99661.66;5115356;28;20040;-70
2022/06/30 04:51:14;;;;;;;8.77;2.00;;;;;;;23.09;34.08;99658.41;5114866;28;20559;-69
2022/06/30 04:53:42;;;;;;;5.53;1.80;;;;;;;23.04;33.47;99660.88;5115019;28;20077;-69
2022/06/30 04:56:10;;;;;;;5.97;1.83;;;;;;;22.98;33.50;99649.13;5101058;28;20052;-71
2022/06/30 04:58:37;;;;;;;4.68;1.58;;;;;;;23.06;33.34;99647.88;5094516;28;20444;-69
2022/06/30 05:01:05;;;;;;;4.07;1.77;;;;;;;23.35;33.06;99645.69;5093755;28;20058;-69
2022/06/30 05:03:34;;;;;;;5.05;1.95;;;;;;;23.65;32.94;99647.94;5081731;28;20058;-68
2022/06/30 05:06:03;;;;;;;;;;;;;;;23.81;32.37;99643.34;5115276;28;20514;-72
2022/06/30 05:08:30;;;;;;;2.60;1.40;;;;;;;23.92;32.21;99654.59;5114681;28;19945;-68
2022/06/30 05:10:57;;;;;;;7.13;1.60;;;;;;;24.05;31.71;99652.88;5114664;28;20082;-68
2022/06/30 05:13:26;;;;;;;5.88;1.30;;;;;;;24.00;31.66;99636.28;5114848;28;20075;-68
2022/06/30 05:15:53;;;;;;;2.88;1.42;;;;;;;23.97;31.78;99642.81;5114380;28;20411;-69
2022/06/30 05:18:21;;;;;;;7.03;1.20;;;;;;;24.03;31.22;99646.81;5114565;28;20048;-69
2022/06/30 05:20:48;;;;;;;3.58;1.20;;;;;;;23.95;30.34;99639.56;5114331;28;20047;-69
2022/06/30 05:23:15;;;;;;;6.85;1.42;;;;;;;24.11;30.19;99645.50;5114285;28;20065;-69
2022/06/30 05:28:27;;;;;;;4.93;1.00;;;;;;;24.40;29.48;99638.31;5114266;28;20055;-70
2022/06/30 05:30:57;;;;;;;2.47;0.93;;;;;;;24.37;28.88;99636.31;5114492;28;20090;-70
2022/06/30 05:33:24;;;;;;;3.53;1.20;;;;;;;24.41;28.62;99642.75;5095528;28;20043;-70
2022/06/30 05:35:53;;;;;;;5.32;1.33;;;;;;;24.43;28.11;99646.81;5114113;28;20139;-69
2022/06/30 05:38:21;;;;;;;3.85;1.10;;;;;;;24.57;28.27;99640.16;5113852;28;20074;-70
2022/06/30 05:40:48;;;;;;;6.90;0.90;;;;;;;24.70;27.71;99644.09;5095457;28;20054;-69
2022/06/30 05:43:16;;;;;;;6.45;1.10;;;;;;;24.61;27.57;99640.91;5114013;28;20047;-70
2022/06/30 05:45:46;;;;;;;8.55;1.00;;;;;;;24.78;26.90;99645.63;5096634;28;20052;-69
2022/06/30 05:48:13;;;;;;;3.65;1.00;;;;;;;24.82;26.73;99646.38;5093544;28;20407;-69
2022/06/30 05:50:39;;;;;;;2.28;0.90;;;;;;;24.86;26.03;99641.44;5093338;28;20457;-69
2022/06/30 05:53:07;;;;;;;6.15;1.23;;;;;;;24.75;24.99;99646.47;5099564;28;20118;-68
2022/06/30 05:55:34;;;;;;;6.22;1.00;;;;;;;24.78;25.44;99640.72;5113989;28;20409;-68
2022/06/30 05:58:06;;;;;;;6.45;1.48;;;;;;;25.06;24.95;99639.56;5114301;28;20464;-69
2022/06/30 06:00:33;;;;;;;3.30;0.75;;;;;;;25.32;24.34;99647.34;5113482;28;20081;-69
2022/06/30 06:03:00;;;;;;;3.53;0.95;;;;;;;25.25;23.50;99640.94;5114572;28;20047;-70
2022/06/30 06:05:28;;;;;;;7.53;1.42;;;;;;;25.25;23.88;99629.53;5113428;28;20047;-69
2022/06/30 06:07:55;;;;;;;9.32;1.27;;;;;;;25.18;23.96;99641.81;5113650;28;20086;-69
2022/06/30 06:10:22;;;;;;;2.03;0.90;;;;;;;25.85;22.55;99638.78;5113076;28;20158;-68
2022/06/30 06:12:50;;;;;;;2.40;0.93;;;;;;;26.76;21.36;99639.94;5112842;28;20151;-68
2022/06/30 06:15:17;;;;;;;6.03;0.90;;;;;;;27.97;20.48;99633.91;5113402;28;20058;-71
2022/06/30 06:17:47;;;;;;;3.63;1.48;;;;;;;30.89;17.86;99636.22;5113247;28;20456;-70
2022/06/30 06:20:17;;;;;;;10.65;1.17;;;;;;;34.14;14.93;99636.59;5113671;28;20073;-71
2022/06/30 06:22:45;;;;;;;7.82;1.13;;;;;;;34.31;14.28;99629.13;5113656;28;20051;-69
2022/06/30 06:25:14;;;;;;;7.15;1.17;;;;;;;32.63;15.03;99636.00;5113240;28;20142;-68
2022/06/30 06:29:05;;;;;;;4.30;0.98;;;;;;;31.30;16.05;99644.50;5094977;28;20047;-69
2022/06/30 06:30:31;;;;;;;2.60;1.50;;;;;;;29.96;16.48;99634.19;5093892;28;20487;-69
2022/06/30 06:32:59;;;;;;;1.70;0.70;;;;;;;29.10;16.92;99636.53;5113173;28;20479;-70
2022/06/30 06:35:27;;;;;;;2.33;0.85;;;;;;;28.41;16.83;99632.34;5092821;28;20090;-70
2022/06/30 06:37:57;;;;;;;2.25;0.80;;;;;;;27.90;17.27;99630.44;5092870;28;20121;-72
2022/06/30 06:40:24;;;;;;;3.60;1.70;;;;;;;27.26;17.86;99639.72;5092409;28;20083;-68
2022/06/30 06:42:53;;;;;;;3.00;1.15;;;;;;;26.76;18.08;99639.94;5092975;28;20082;-68
2022/06/30 06:45:20;;;;;;;;;;;;;;;26.31;18.20;99643.69;5075596;28;20094;-70
2022/06/30 06:47:47;;;;;;;3.22;0.90;;;;;;;27.00;18.26;99642.72;5074510;28;20462;-72
2022/06/30 06:50:14;;;;;;;3.92;0.90;;;;;;;28.02;16.86;99630.53;5092981;28;20407;-72
2022/06/30 06:52:44;;;;;;;7.82;0.88;;;;;;;28.78;16.32;99636.66;5093026;28;20591;-72
2022/06/30 06:55:11;;;;;;;2.22;0.93;;;;;;;30.43;14.84;99625.59;5092445;28;20087;-71
2022/06/30 06:57:43;;;;;;;3.65;1.10;;;;;;;34.31;12.04;99617.56;5092609;28;20070;-71
2022/06/30 07:00:13;;;;;;;3.70;1.00;;;;;;;38.03;9.53;99619.16;5092235;28;20076;-72
2022/06/30 07:02:41;;;;;;;2.00;1.05;;;;;;;40.51;8.24;99620.97;5092565;28;20037;-72
2022/06/30 07:05:09;;;;;;;2.60;1.17;;;;;;;42.48;7.07;99617.16;5092415;28;20507;-72
2022/06/30 07:07:37;;;;;;;3.83;1.25;;;;;;;44.09;6.46;99625.16;5092922;28;20052;-76
2022/06/30 07:10:06;;;;;;;8.32;1.30;;;;;;;45.97;6.03;99621.78;5103561;28;20498;-76
2022/06/30 07:12:34;;;;;;;2.10;1.10;;;;;;;47.57;5.17;99620.00;5095133;28;20122;-73
2022/06/30 07:15:01;;;;;;;;;;;;;;;48.08;4.99;99616.91;5113192;28;20051;-72
2022/06/30 07:17:35;;;;;;;5.60;1.00;;;;;;;49.10;4.20;99618.69;5113025;28;20382;-72
2022/06/30 07:20:03;;;;;;;5.38;1.50;;;;;;;49.63;4.03;99629.47;5112578;28;20101;-72
2022/06/30 07:22:30;;;;;;;7.88;1.40;;;;;;;50.80;3.55;99608.91;5113048;28;20532;-74
2022/06/30 07:24:56;;;;;;;4.55;1.50;;;;;;;52.19;3.19;99630.25;5116135;28;20126;-71
2022/06/30 07:27:23;;;;;;;4.90;1.60;;;;;;;52.75;3.00;99625.09;5116753;28;20134;-74
2022/06/30 07:29:50;;;;;;;5.18;1.30;;;;;;;52.86;2.58;99625.25;5116447;28;20414;-72
2022/06/30 07:32:17;;;;;;;1.95;1.30;;;;;;;53.11;2.64;99610.84;5113263;28;20040;-72
2022/06/30 07:34:44;;;;;;;4.20;1.40;;;;;;;52.99;1.99;99615.09;5096036;28;20101;-71
2022/06/30 07:37:11;;;;;;;10.30;4.70;;;;;;;53.22;1.85;99621.34;5096194;28;20444;-72
2022/06/30 07:39:38;;;;;;;;;;;;;;;52.84;2.52;99621.34;5096266;28;20146;-71
2022/06/30 07:42:05;;;;;;;5.20;1.67;;;;;;;51.93;2.71;99619.97;5095593;28;19924;-73
2022/06/30 07:44:32;;;;;;;7.78;1.58;;;;;;;51.89;2.68;99622.63;5095920;28;20071;-75
2022/06/30 07:46:59;;;;;;;;;;;;;;;52.06;2.76;99613.66;5097930;28;20096;-73
2022/06/30 07:49:26;;;;;;;9.27;1.50;;;;;;;53.01;2.76;99615.25;5115935;28;19954;-72
2022/06/30 07:51:53;;;;;;;3.58;1.50;;;;;;;54.52;1.31;99621.38;5116213;28;20071;-72
2022/06/30 07:54:20;;;;;;;;;;;;;;;54.94;1.75;99618.38;5116393;28;20549;-71
2022/06/30 07:56:48;;;;;;;12.57;3.00;;;;;;;55.30;1.36;99612.72;5116211;28;19969;-75
2022/06/30 07:59:15;;;;;;;14.60;1.73;;;;;;;55.87;0.91;99599.34;5115795;28;20087;-74
2022/06/30 08:01:42;;;;;;;4.50;1.70;;;;;;;56.34;0.34;99606.13;5116026;28;20504;-71
2022/06/30 08:04:11;;;;;;;4.82;2.10;;;;;;;56.00;0.78;99597.91;5097432;28;20082;-73
2022/06/30 08:06:38;;;;;;;17.92;2.60;;;;;;;55.67;0.86;99598.78;5098355;28;20054;-72
2022/06/30 08:09:05;;;;;;;6.13;1.80;;;;;;;55.40;0.72;99600.69;5115600;28;20060;-72
2022/06/30 08:11:32;;;;;;;8.73;1.77;;;;;;;56.18;0.90;99599.91;5115922;28;20039;-74
2022/06/30 08:13:59;;;;;;;7.38;3.20;;;;;;;56.24;0.91;99597.28;5115875;28;20050;-75
2022/06/30 08:16:26;;;;;;;19.27;1.80;;;;;;;55.05;1.16;99591.56;5097508;28;20047;-75
2022/06/30 08:19:00;;;;;;;3.35;1.52;;;;;;;55.86;1.10;99591.03;5115875;28;20070;-71
2022/06/30 08:21:27;;;;;;;4.40;1.60;;;;;;;55.76;0.70;99584.41;5115813;28;20081;-75
2022/06/30 08:23:55;;;;;;;3.72;1.85;;;;;;;56.01;1.16;99575.56;5115918;28;20094;-72
2022/06/30 08:26:22;;;;;;;5.95;1.83;;;;;;;56.65;0.61;99576.69;5116489;28;20056;-73
2022/06/30 08:28:49;;;;;;;3.10;2.00;;;;;;;57.96;0.52;99577.03;5115502;28;20414;-72
2022/06/30 08:31:16;;;;;;;6.97;2.00;;;;;;;57.73;0.69;99582.38;5115203;28;20082;-72
2022/06/30 08:33:43;;;;;;;10.63;1.92;;;;;;;57.36;0.25;99576.53;5115230;28;20093;-74
2022/06/30 08:36:12;;;;;;;8.60;2.30;;;;;;;58.10;0.37;99580.84;5114390;28;20071;-73
2022/06/30 08:38:39;;;;;;;11.57;2.42;;;;;;;58.60;0.00;99574.56;5115108;28;20078;-72
2022/06/30 08:43:52;;;;;;;;;;;;;;;57.04;0.87;99562.63;5115594;28;20055;-72
2022/06/30 08:46:22;;;;;;;11.05;4.05;;;;;;;56.96;0.81;99565.16;5096637;28;19928;-71
2022/06/30 08:48:49;;;;;;;4.97;2.15;;;;;;;57.81;0.84;99552.91;5114677;28;20058;-75
2022/06/30 08:51:18;;;;;;;4.93;2.25;;;;;;;58.84;0.00;99562.31;5114739;28;20065;-73
2022/06/30 08:53:55;;;;;;;13.55;2.50;;;;;;;59.00;0.05;99557.94;5114752;28;20142;-72
2022/06/30 08:56:23;;;;;;;8.07;2.42;;;;;;;58.10;0.19;99559.03;5115033;28;20610;-69
2022/06/30 08:58:51;;;;;;;9.20;2.63;;;;;;;57.95;0.61;99551.50;5107733;28;20052;-73
2022/06/30 09:01:18;;;;;;;7.10;2.55;;;;;;;58.14;0.18;99556.28;5076688;28;20074;-69
2022/06/30 09:03:48;;;;;;;7.25;2.50;;;;;;;58.50;0.03;99559.03;5094196;28;20075;-69
2022/06/30 09:06:15;;;;;;;12.00;2.75;;;;;;;57.69;0.60;99553.00;5094220;28;20056;-69
2022/06/30 09:09:00;;;;;;;10.60;2.75;;;;;;;56.51;0.54;99542.91;5094319;28;20051;-72
2022/06/30 09:11:49;;;;;;;22.45;3.35;;;;;;;55.50;1.19;99548.41;5094158;28;20079;-70
2022/06/30 09:14:41;;;;;;;12.75;2.70;;;;;;;55.12;1.51;99551.81;5093858;28;20044;-72
2022/06/30 09:17:13;;;;;;;5.80;2.88;;;;;;;55.61;1.11;99549.84;5094057;28;20044;-73
2022/06/30 09:20:10;;;;;;;4.65;2.20;;;;;;;56.88;1.19;99546.69;5094405;28;20496;-70
2022/06/30 09:22:39;;;;;;;10.93;2.58;;;;;;;58.12;0.52;99535.97;5094336;28;20521;-71
2022/06/30 09:25:12;;;;;;;9.35;2.38;;;;;;;57.38;0.98;99546.69;5075501;28;20071;-69
2022/06/30 09:27:41;;;;;;;6.95;2.35;;;;;;;57.61;0.67;99539.78;5094051;28;20131;-68
2022/06/30 09:30:11;;;;;;;7.85;2.45;;;;;;;58.36;0.81;99543.25;5093828;28;20063;-68
2022/06/30 09:32:48;;;;;;;2.70;2.20;;;;;;;57.78;1.04;99543.03;5093688;28;20450;-69
2022/06/30 09:35:18;;;;;;;10.65;2.42;;;;;;;57.47;1.36;99542.72;5093748;28;20533;-75
2022/06/30 09:37:45;;;;;;;7.82;2.00;;;;;;;57.25;1.41;99532.47;5093622;28;20066;-71
2022/06/30 09:40:12;;;;;;;13.15;2.22;;;;;;;53.32;2.64;99523.94;5093281;28;20570;-69
2022/06/30 09:42:41;;;;;;;6.00;2.53;;;;;;;46.30;5.39;99514.94;5093320;28;20044;-68
2022/06/30 09:45:41;;;;;;;4.22;1.50;;;;;;;40.98;7.87;99509.59;5093589;28;20048;-68
2022/06/30 09:48:11;;;;;;;4.00;1.30;;;;;;;38.50;9.88;99512.91;5100230;28;20044;-70
2022/06/30 09:50:38;;;;;;;6.80;1.30;;;;;;;36.27;11.29;99507.94;5113683;28;20460;-72
2022/06/30 09:53:11;;;;;;;14.13;2.88;;;;;;;34.86;12.67;99509.69;5114032;28;20093;-73
2022/06/30 09:55:43;;;;;;;4.60;1.67;;;;;;;34.06;13.43;99516.97;5113831;28;20116;-71
2022/06/30 09:58:34;;;;;;;5.97;1.23;;;;;;;33.23;13.96;99509.22;5113405;28;20096;-69
2022/06/30 10:01:02;;;;;;;9.35;1.20;;;;;;;32.32;14.52;99507.81;5113265;28;20047;-71
2022/06/30 10:03:43;;;;;;;12.68;1.17;;;;;;;31.68;15.08;99504.06;5113544;28;20051;-72
2022/06/30 10:06:13;;;;;;;4.78;1.23;;;;;;;31.03;15.34;99486.22;5095600;28;20043;-72
2022/06/30 10:08:40;;;;;;;5.78;1.23;;;;;;;30.40;16.01;99494.47;5113667;28;20047;-73
2022/06/30 10:11:09;;;;;;;9.98;1.58;;;;;;;29.74;16.34;99493.56;5113482;28;20576;-71
2022/06/30 10:13:38;;;;;;;3.35;1.30;;;;;;;29.58;17.06;99499.41;5113453;28;20169;-73
2022/06/30 10:16:07;;;;;;;8.82;1.40;;;;;;;29.42;17.42;99488.06;5113266;28;20050;-72
2022/06/30 10:18:40;;;;;;;19.98;2.13;;;;;;;29.25;17.96;99495.19;5113418;28;20552;-71
2022/06/30 10:21:10;;;;;;;8.27;1.33;;;;;;;29.19;17.32;99494.19;5113137;28;20053;-71
2022/06/30 10:23:38;;;;;;;3.65;1.33;;;;;;;28.91;17.46;99483.63;5094734;28;20073;-72
2022/06/30 10:26:06;;;;;;;6.88;1.40;;;;;;;28.60;17.85;99482.56;5110657;28;20137;-72
2022/06/30 10:28:33;;;;;;;2.35;1.20;;;;;;;28.32;18.12;99494.81;5092812;28;20525;-72
2022/06/30 10:31:17;;;;;;;8.27;1.30;;;;;;;28.32;18.31;99484.19;5092722;28;20396;-71
2022/06/30 10:34:07;;;;;;;7.30;1.70;;;;;;;28.34;18.57;99483.72;5093069;28;20036;-72
2022/06/30 10:36:51;;;;;;;2.78;1.30;;;;;;;28.37;18.69;99479.97;5093028;28;20082;-72
2022/06/30 10:39:36;;;;;;;2.55;0.93;;;;;;;28.21;19.20;99488.59;5092783;28;20064;-70
2022/06/30 10:42:04;;;;;;;4.03;0.98;;;;;;;28.01;19.19;99485.09;5074847;28;20048;-71
2022/06/30 10:44:32;;;;;;;3.67;1.42;;;;;;;27.71;19.29;99480.56;5077897;28;20133;-70
2022/06/30 10:47:05;;;;;;;8.95;1.45;;;;;;;27.60;19.45;99482.13;5112438;28;20056;-71
2022/06/30 10:49:51;;;;;;;11.25;1.30;;;;;;;27.47;19.98;99481.25;5112084;28;20039;-72
2022/06/30 10:52:24;;;;;;;10.55;1.20;;;;;;;27.28;20.36;99477.22;5112250;28;20131;-71
2022/06/30 10:55:00;;;;;;;4.10;1.60;;;;;;;27.39;20.13;99477.78;5111901;28;20059;-72
2022/06/30 10:58:07;;;;;;;2.45;1.08;;;;;;;27.43;20.19;99474.81;5111710;28;20044;-71
2022/06/30 11:01:00;;;;;;;7.25;1.92;;;;;;;27.55;20.24;99471.22;5112684;28;20159;-70
2022/06/30 11:03:34;;;;;;;4.88;1.27;;;;;;;27.56;20.31;99470.78;5116036;28;20121;-74
2022/06/30 11:06:26;;;;;;;6.03;1.42;;;;;;;27.51;20.65;99479.91;5110774;28;20051;-75
2022/06/30 11:08:59;;;;;;;5.40;1.15;;;;;;;27.51;20.91;99464.81;5114909;28;20048;-75
2022/06/30 11:11:25;;;;;;;3.22;1.27;;;;;;;27.44;20.97;99462.94;5115061;28;20050;-71
2022/06/30 11:14:02;;;;;;;6.32;1.40;;;;;;;27.47;20.89;99458.38;5116276;28;20129;-71
2022/06/30 11:16:31;;;;;;;6.50;1.40;;;;;;;27.50;20.86;99460.34;5106460;28;20140;-71
2022/06/30 11:18:59;;;;;;;6.63;1.23;;;;;;;27.33;20.47;99461.59;5116004;27;20422;-71
2022/06/30 11:21:31;;;;;;;23.92;10.52;;;;;;;27.06;20.91;99458.19;5115230;27;20491;-67
2022/06/30 11:24:02;;;;;;;3.70;1.10;;;;;;;26.82;21.21;99456.75;5112874;28;20104;-71
2022/06/30 11:29:18;;;;;;;4.35;1.58;;;;;;;26.70;21.74;99453.31;5110602;28;20494;-71
2022/06/30 11:31:46;;;;;;;20.92;1.58;;;;;;;26.71;21.52;99449.22;5115166;28;20051;-72
2022/06/30 11:34:20;;;;;;;8.23;1.17;;;;;;;26.77;21.95;99453.13;5109650;28;20083;-71
2022/06/30 11:36:58;;;;;;;5.45;1.00;;;;;;;26.88;21.41;99440.69;5113532;28;20096;-71
2022/06/30 11:39:26;;;;;;;5.40;1.05;;;;;;;26.96;21.64;99433.56;5108605;28;20129;-72
2022/06/30 11:41:56;;;;;;;2.40;1.10;;;;;;;27.00;21.92;99448.53;5110638;28;20557;-76
2022/06/30 11:44:44;;;;;;;2.67;1.13;;;;;;;27.01;21.54;99438.72;5113962;28;20391;-73
2022/06/30 11:47:20;;;;;;;5.30;1.30;;;;;;;27.11;21.86;99437.66;5099812;28;20460;-75
2022/06/30 11:49:52;;;;;;;8.18;1.33;;;;;;;27.20;21.52;99437.84;5098507;28;20495;-76
2022/06/30 11:52:22;;;;;;;7.95;1.25;;;;;;;26.98;21.96;99428.19;5111334;28;20052;-74
2022/06/30 11:54:55;;;;;;;5.10;1.25;;;;;;;26.86;22.44;99434.59;5110301;28;20078;-73
2022/06/30 11:57:25;;;;;;;1.70;1.10;;;;;;;26.82;22.44;99436.75;5090359;28;20498;-77
2022/06/30 12:00:02;;;;;;;1.83;1.00;;;;;;;26.88;22.63;99429.25;5109269;28;20058;-67